Time;durP1;ratioP1;P1;durP2;ratioP2;P2;SDS_P1;SDS_P2;PMS_P1;PMS_P2;Temp;Humidity;BMP_temperature;BMP_pressure;BME280_temperature;BME280_humidity;BME280_pressure;Samples;Min_cycle;Max_cycle;Signal;HPM_P1;HPM_P2
2022/06/15 00:02:02;;;;;;;6.72;2.00;;;23.50;49.50;;;;;;6134302;28;81427;-72
2022/06/15 00:05:03;;;;;;;3.50;2.17;;;23.40;49.40;;;;;;6129506;28;80861;-72
2022/06/15 00:08:04;;;;;;;4.15;1.80;;;23.40;49.40;;;;;;6134186;28;81412;-71
2022/06/15 00:11:04;;;;;;;3.20;2.10;;;23.40;49.40;;;;;;6134697;28;80918;-71
2022/06/15 00:14:04;;;;;;;4.07;1.88;;;23.50;49.40;;;;;;6134455;28;80295;-71
2022/06/15 00:17:05;;;;;;;4.30;2.28;;;23.40;49.40;;;;;;6132992;28;80703;-71
2022/06/15 00:20:05;;;;;;;5.18;2.35;;;23.40;49.30;;;;;;6127439;28;80414;-71
2022/06/15 00:23:06;;;;;;;6.82;1.92;;;23.40;49.20;;;;;;6130755;28;81463;-72
2022/06/15 00:26:06;;;;;;;9.60;2.40;;;23.40;49.30;;;;;;6138200;28;80534;-72
2022/06/15 00:29:07;;;;;;;2.67;1.67;;;23.40;49.20;;;;;;6130258;28;87568;-71
2022/06/15 00:32:07;;;;;;;6.85;2.95;;;23.40;49.20;;;;;;6138557;28;80414;-72
2022/06/15 00:35:08;;;;;;;6.38;2.50;;;23.40;49.20;;;;;;6138116;28;81652;-72
2022/06/15 00:38:08;;;;;;;3.92;2.38;;;23.40;49.20;;;;;;6139023;28;81315;-72
2022/06/15 00:41:09;;;;;;;4.40;2.88;;;23.40;49.20;;;;;;6136199;28;83318;-71
2022/06/15 00:44:10;;;;;;;4.63;2.53;;;23.40;49.20;;;;;;6136580;28;83924;-71
2022/06/15 00:47:12;;;;;;;5.72;2.47;;;23.40;49.20;;;;;;6141054;28;80737;-71
2022/06/15 00:50:13;;;;;;;4.30;2.45;;;23.30;49.10;;;;;;6144955;28;80345;-71
2022/06/15 00:53:13;;;;;;;6.32;2.28;;;23.30;49.00;;;;;;6137466;28;81031;-72
2022/06/15 00:56:14;;;;;;;6.13;2.25;;;23.30;49.00;;;;;;6133165;28;80890;-68
2022/06/15 00:59:14;;;;;;;4.32;2.28;;;23.30;49.00;;;;;;6137178;28;80939;-71
2022/06/15 01:02:15;;;;;;;2.78;1.92;;;23.30;49.00;;;;;;6134689;28;80629;-71
2022/06/15 01:05:15;;;;;;;4.47;2.72;;;23.30;49.10;;;;;;6134684;28;81539;-71
2022/06/15 01:08:16;;;;;;;5.22;1.90;;;23.30;49.10;;;;;;6139342;28;80284;-72
2022/06/15 01:11:17;;;;;;;3.45;2.47;;;23.30;49.10;;;;;;6134701;28;82240;-70
2022/06/15 01:14:17;;;;;;;5.00;2.40;;;23.30;49.00;;;;;;6137521;28;82854;-72
2022/06/15 01:17:18;;;;;;;5.03;2.35;;;23.30;49.00;;;;;;6143913;28;82509;-72
2022/06/15 01:20:18;;;;;;;4.28;2.72;;;23.30;49.00;;;;;;6135470;28;82852;-72
2022/06/15 01:23:23;;;;;;;5.80;2.22;;;23.30;49.00;;;;;;6135921;28;80449;-72
2022/06/15 01:26:23;;;;;;;4.03;2.47;;;23.30;49.00;;;;;;6137165;28;80637;-72
2022/06/15 01:29:24;;;;;;;7.57;2.45;;;23.30;49.00;;;;;;6128862;28;83503;-73
2022/06/15 01:32:24;;;;;;;3.92;2.03;;;23.30;49.00;;;;;;6133255;28;80327;-72
2022/06/15 01:35:25;;;;;;;2.78;2.20;;;23.30;49.00;;;;;;6133986;28;80388;-72
2022/06/15 01:38:25;;;;;;;4.03;2.17;;;23.30;49.00;;;;;;6140736;28;80897;-72
2022/06/15 01:41:26;;;;;;;5.38;2.65;;;23.30;49.00;;;;;;6136892;28;80921;-71
2022/06/15 01:44:26;;;;;;;5.47;2.08;;;23.30;49.10;;;;;;6133217;28;83789;-71
2022/06/15 01:47:29;;;;;;;4.80;2.30;;;23.30;49.20;;;;;;6135381;28;82951;-71
2022/06/15 01:50:29;;;;;;;4.55;2.10;;;23.30;49.30;;;;;;6151397;28;80325;-70
2022/06/15 01:53:30;;;;;;;5.68;2.35;;;23.30;49.40;;;;;;6141792;28;82103;-71
2022/06/15 01:56:31;;;;;;;4.82;2.30;;;23.30;49.40;;;;;;6139214;28;83081;-71
2022/06/15 01:59:32;;;;;;;6.10;2.25;;;23.20;49.50;;;;;;6133182;28;82752;-70
2022/06/15 02:02:32;;;;;;;5.80;2.05;;;23.20;49.60;;;;;;6136927;28;83544;-70
2022/06/15 02:05:33;;;;;;;5.40;2.30;;;23.30;49.60;;;;;;6136795;28;83184;-70
2022/06/15 02:08:33;;;;;;;3.33;2.08;;;23.20;49.60;;;;;;6136573;28;82709;-70
2022/06/15 02:11:34;;;;;;;6.32;2.30;;;23.20;50.30;;;;;;6132987;28;81865;-71
2022/06/15 02:14:35;;;;;;;3.17;2.20;;;23.20;49.70;;;;;;6136025;28;83166;-70
2022/06/15 02:17:36;;;;;;;3.08;1.80;;;23.20;49.80;;;;;;6137543;28;81512;-70
2022/06/15 02:20:36;;;;;;;3.75;2.03;;;23.20;49.90;;;;;;6137165;28;83075;-71
2022/06/15 02:23:37;;;;;;;6.60;2.70;;;23.20;49.90;;;;;;6138379;28;82826;-70
2022/06/15 02:26:38;;;;;;;2.72;1.90;;;23.20;49.90;;;;;;6134357;28;83091;-71
2022/06/15 02:29:39;;;;;;;2.85;1.70;;;23.20;49.90;;;;;;6134285;28;83230;-71
2022/06/15 02:32:40;;;;;;;2.92;1.90;;;23.20;49.90;;;;;;6133810;28;81653;-72
2022/06/15 02:35:40;;;;;;;5.40;2.22;;;23.20;49.90;;;;;;6134451;28;81869;-72
2022/06/15 02:38:47;;;;;;;4.80;2.30;;;23.20;49.90;;;;;;6134909;28;81413;-72
2022/06/15 02:41:48;;;;;;;3.78;2.15;;;23.20;50.00;;;;;;6135306;28;80721;-72
2022/06/15 02:44:49;;;;;;;5.38;2.22;;;23.20;50.00;;;;;;6135680;28;81682;-73
2022/06/15 02:47:50;;;;;;;5.10;2.15;;;23.20;50.00;;;;;;6126690;28;83576;-72
2022/06/15 02:50:51;;;;;;;4.50;2.00;;;23.20;50.10;;;;;;6132477;28;82953;-72
2022/06/15 02:53:51;;;;;;;7.85;2.60;;;23.20;50.20;;;;;;6133624;28;83163;-73
2022/06/15 02:56:53;;;;;;;3.70;1.95;;;23.10;50.10;;;;;;6130259;28;82832;-73
2022/06/15 02:59:53;;;;;;;5.60;2.42;;;23.20;50.10;;;;;;6133388;28;83067;-73
2022/06/15 03:02:57;;;;;;;4.55;2.08;;;23.20;50.10;;;;;;6132440;28;82420;-74
2022/06/15 03:05:57;;;;;;;3.40;1.98;;;23.20;50.20;;;;;;6132494;28;83114;-71
2022/06/15 03:08:58;;;;;;;6.53;2.35;;;23.20;50.20;;;;;;6133495;28;82679;-71
2022/06/15 03:12:05;;;;;;;4.70;2.28;;;23.20;50.20;;;;;;6131679;28;82630;-72
2022/06/15 03:15:10;;;;;;;4.82;2.55;;;23.10;50.20;;;;;;6140923;28;81618;-72
2022/06/15 03:18:11;;;;;;;6.20;2.28;;;23.20;50.20;;;;;;6139408;28;83269;-72
2022/06/15 03:21:11;;;;;;;5.00;2.35;;;23.20;50.20;;;;;;6134006;28;81893;-72
2022/06/15 03:24:12;;;;;;;6.05;2.83;;;23.20;50.20;;;;;;6133604;28;83063;-71
2022/06/15 03:27:13;;;;;;;3.85;2.25;;;23.20;50.20;;;;;;6136675;28;82860;-73
2022/06/15 03:30:15;;;;;;;3.53;2.10;;;23.20;50.30;;;;;;6137138;28;82825;-73
2022/06/15 03:33:22;;;;;;;7.10;2.47;;;23.20;50.20;;;;;;6137482;28;82148;-73
2022/06/15 03:36:22;;;;;;;5.60;2.70;;;23.20;50.20;;;;;;6130313;28;80753;-73
2022/06/15 03:39:23;;;;;;;6.95;2.50;;;23.20;50.20;;;;;;6133541;28;83493;-72
2022/06/15 03:42:27;;;;;;;7.30;2.20;;;23.20;50.20;;;;;;6139068;28;80781;-72
2022/06/15 03:45:30;;;;;;;5.57;2.22;;;23.20;50.20;;;;;;6136395;28;81831;-73
2022/06/15 03:48:31;;;;;;;4.05;2.42;;;23.20;50.20;;;;;;6135538;28;82008;-70
2022/06/15 03:51:32;;;;;;;2.55;1.95;;;23.10;50.30;;;;;;6129356;28;83139;-71
2022/06/15 03:54:36;;;;;;;5.05;2.60;;;23.20;50.80;;;;;;6131945;28;82335;-72
2022/06/15 03:57:38;;;;;;;4.43;1.98;;;23.30;50.90;;;;;;6129247;28;83038;-69
2022/06/15 04:00:41;;;;;;;7.40;2.58;;;23.30;51.10;;;;;;6131986;28;83063;-71
2022/06/15 04:03:46;;;;;;;7.80;2.50;;;23.40;51.30;;;;;;6168943;28;82677;-71
2022/06/15 04:06:49;;;;;;;4.70;2.28;;;23.40;51.30;;;;;;6136804;28;81903;-71
2022/06/15 04:09:52;;;;;;;5.47;2.65;;;23.40;51.30;;;;;;6139571;28;82735;-69
2022/06/15 04:12:53;;;;;;;5.32;2.30;;;23.40;51.50;;;;;;6138212;28;83051;-70
2022/06/15 04:15:53;;;;;;;4.72;2.10;;;23.50;51.80;;;;;;6147710;28;81780;-71
2022/06/15 04:19:02;;;;;;;8.02;2.90;;;23.50;51.90;;;;;;6141165;28;81879;-71
2022/06/15 04:22:03;;;;;;;6.07;2.35;;;23.50;52.20;;;;;;6135446;28;82380;-70
2022/06/15 04:25:05;;;;;;;4.57;2.25;;;23.50;52.00;;;;;;6133622;28;83427;-69
2022/06/15 04:28:06;;;;;;;8.00;2.22;;;23.50;52.20;;;;;;6136284;28;82493;-69
2022/06/15 04:31:08;;;;;;;6.15;2.80;;;23.60;52.10;;;;;;6136554;28;83162;-68
2022/06/15 04:34:12;;;;;;;7.78;3.13;;;23.60;52.20;;;;;;6144756;28;82541;-70
2022/06/15 04:37:12;;;;;;;4.13;2.25;;;23.60;52.00;;;;;;6119054;28;83117;-69
2022/06/15 04:40:19;;;;;;;8.40;2.42;;;23.60;52.40;;;;;;6140142;28;83132;-65
2022/06/15 04:43:20;;;;;;;6.63;2.20;;;23.60;52.30;;;;;;6137502;28;80598;-65
2022/06/15 04:46:20;;;;;;;6.28;2.70;;;23.60;52.10;;;;;;6136066;28;82013;-67
2022/06/15 04:49:22;;;;;;;3.38;1.90;;;23.60;52.10;;;;;;6117824;28;83560;-66
2022/06/15 04:52:26;;;;;;;8.77;2.65;;;23.60;52.10;;;;;;6136701;28;82354;-71
2022/06/15 04:55:27;;;;;;;8.02;2.60;;;23.60;52.30;;;;;;6135193;28;82621;-70
2022/06/15 04:58:32;;;;;;;5.63;2.60;;;23.60;52.40;;;;;;6133669;28;82741;-69
2022/06/15 05:01:34;;;;;;;4.35;2.45;;;23.60;52.50;;;;;;6135133;28;83578;-69
2022/06/15 05:04:35;;;;;;;9.52;2.85;;;23.70;52.70;;;;;;6116997;28;83260;-67
2022/06/15 05:07:36;;;;;;;6.00;2.05;;;23.70;52.70;;;;;;6135805;28;82748;-73
2022/06/15 05:10:37;;;;;;;8.32;2.88;;;23.70;52.60;;;;;;6141022;28;82767;-74
2022/06/15 05:13:37;;;;;;;15.45;3.78;;;23.70;52.00;;;;;;6133352;28;80077;-73
2022/06/15 05:16:38;;;;;;;12.23;4.93;;;23.70;51.50;;;;;;6131263;28;81786;-73
2022/06/15 05:19:44;;;;;;;9.15;4.40;;;23.60;50.90;;;;;;6134786;28;83190;-73
2022/06/15 05:22:44;;;;;;;11.43;3.45;;;23.60;50.70;;;;;;6131782;28;81503;-73
2022/06/15 05:25:46;;;;;;;7.70;3.42;;;23.50;50.40;;;;;;6135374;28;83657;-73
2022/06/15 05:28:48;;;;;;;14.02;3.60;;;23.50;50.20;;;;;;6135334;28;82954;-73
2022/06/15 05:31:50;;;;;;;7.00;3.33;;;23.40;50.20;;;;;;6135209;28;81322;-73
2022/06/15 05:34:51;;;;;;;8.80;2.88;;;23.40;50.20;;;;;;6135209;28;83145;-73
2022/06/15 05:37:53;;;;;;;10.25;4.25;;;23.40;50.20;;;;;;6132202;28;82697;-73
2022/06/15 05:40:53;;;;;;;9.75;3.15;;;23.40;50.10;;;;;;6135205;28;82483;-73
2022/06/15 05:44:10;;;;;;;6.78;3.45;;;23.40;50.00;;;;;;6135545;28;82158;-72
2022/06/15 05:47:13;;;;;;;9.32;4.28;;;23.40;50.10;;;;;;6135646;28;81320;-73
2022/06/15 05:50:29;;;;;;;8.57;3.60;;;23.40;50.00;;;;;;6136585;28;80216;-74
2022/06/15 05:53:37;;;;;;;6.75;3.25;;;23.40;50.00;;;;;;6123383;28;86763;-72
2022/06/15 05:56:38;;;;;;;9.88;3.28;;;23.40;49.90;;;;;;6136695;28;80278;-72
2022/06/15 05:59:39;;;;;;;7.53;3.25;;;23.40;49.80;;;;;;6134575;28;83342;-73
2022/06/15 06:02:40;;;;;;;7.53;3.15;;;23.30;49.60;;;;;;6136467;28;80540;-73
2022/06/15 06:05:41;;;;;;;7.60;3.60;;;23.30;49.80;;;;;;6136339;28;80320;-72
2022/06/15 06:08:41;;;;;;;7.40;3.67;;;23.30;49.80;;;;;;6139676;28;80967;-73
2022/06/15 06:11:42;;;;;;;6.30;3.13;;;23.30;49.60;;;;;;6135690;28;80631;-72
2022/06/15 06:14:42;;;;;;;7.05;3.33;;;23.30;49.80;;;;;;6134478;28;87485;-72
2022/06/15 06:17:43;;;;;;;10.95;3.83;;;23.40;49.80;;;;;;6141780;28;80430;-71
2022/06/15 06:20:43;;;;;;;6.70;3.10;;;23.40;49.60;;;;;;6135892;28;81262;-72
2022/06/15 06:23:43;;;;;;;10.65;3.05;;;23.40;49.80;;;;;;6136992;28;80425;-73
2022/06/15 06:26:45;;;;;;;10.52;3.05;;;23.40;49.20;;;;;;6135093;28;81560;-73
2022/06/15 06:29:46;;;;;;;9.38;3.05;;;23.30;48.80;;;;;;6135656;28;80395;-73
2022/06/15 06:32:46;;;;;;;6.80;3.20;;;23.40;49.10;;;;;;6131648;28;80515;-73
2022/06/15 06:35:47;;;;;;;9.25;2.78;;;23.30;48.50;;;;;;6135927;28;82620;-74
2022/06/15 06:38:47;;;;;;;5.85;2.97;;;23.40;48.90;;;;;;6133012;28;83370;-72
2022/06/15 06:41:48;;;;;;;6.38;2.75;;;23.40;49.30;;;;;;6135787;28;80809;-72
2022/06/15 06:44:48;;;;;;;3.47;2.28;;;23.40;48.70;;;;;;6136205;28;84035;-72
2022/06/15 06:47:49;;;;;;;5.20;2.97;;;23.40;48.70;;;;;;6135726;28;80291;-73
2022/06/15 06:50:49;;;;;;;6.65;3.63;;;23.40;48.60;;;;;;6135680;28;80427;-73
2022/06/15 06:53:50;;;;;;;7.15;3.38;;;23.40;48.40;;;;;;6135441;28;80539;-74
2022/06/15 06:56:50;;;;;;;6.00;2.80;;;23.40;48.20;;;;;;6134018;28;80529;-74
2022/06/15 06:59:51;;;;;;;9.68;2.83;;;23.40;48.20;;;;;;6134814;28;80463;-74
2022/06/15 07:02:51;;;;;;;4.68;2.72;;;23.40;48.20;;;;;;6135294;28;81609;-73
2022/06/15 07:05:52;;;;;;;8.50;2.78;;;23.50;48.20;;;;;;6133822;28;81055;-73
2022/06/15 07:08:52;;;;;;;6.72;2.88;;;23.50;48.70;;;;;;6138989;28;82604;-73
2022/06/15 07:11:53;;;;;;;6.82;3.03;;;23.50;48.40;;;;;;6135313;28;80233;-73
2022/06/15 07:14:53;;;;;;;5.65;2.88;;;23.50;48.70;;;;;;6135156;28;80524;-73
2022/06/15 07:17:54;;;;;;;6.80;3.00;;;23.60;48.40;;;;;;6134520;28;80409;-73
2022/06/15 07:20:55;;;;;;;9.57;3.42;;;23.60;48.50;;;;;;6135008;28;80707;-72
2022/06/15 07:23:55;;;;;;;6.55;2.97;;;23.60;48.40;;;;;;6134751;28;80218;-73
2022/06/15 07:26:56;;;;;;;4.75;3.05;;;23.60;48.20;;;;;;6133866;28;81581;-72
2022/06/15 07:29:58;;;;;;;7.43;2.80;;;23.60;48.40;;;;;;6134613;28;80358;-73
2022/06/15 07:32:58;;;;;;;6.40;2.92;;;23.60;48.30;;;;;;6135157;28;80324;-73
2022/06/15 07:35:59;;;;;;;5.88;2.35;;;23.70;48.30;;;;;;6131083;28;80765;-73
2022/06/15 07:38:59;;;;;;;4.32;2.85;;;23.70;48.30;;;;;;6134342;28;82714;-73
2022/06/15 07:42:00;;;;;;;6.45;2.95;;;23.70;48.20;;;;;;6134798;28;80505;-74
2022/06/15 07:45:00;;;;;;;7.18;2.55;;;23.70;48.20;;;;;;6132764;28;82186;-74
2022/06/15 07:51:20;;;;;;;8.50;3.30;;;23.70;48.10;;;;;;6133790;28;85587;-75
2022/06/15 07:54:21;;;;;;;6.07;2.50;;;23.70;48.00;;;;;;6134269;28;82231;-74
2022/06/15 07:57:21;;;;;;;6.15;2.78;;;23.70;47.80;;;;;;6134150;28;80358;-73
2022/06/15 08:00:22;;;;;;;7.50;3.13;;;23.70;47.60;;;;;;6129857;28;81483;-74
2022/06/15 08:03:22;;;;;;;5.97;3.15;;;23.70;47.40;;;;;;6134557;28;80554;-74
2022/06/15 08:06:23;;;;;;;8.10;2.85;;;23.70;47.80;;;;;;6130104;28;80530;-74
2022/06/15 08:09:23;;;;;;;5.65;3.00;;;23.70;47.50;;;;;;6128892;28;81083;-73
2022/06/15 08:12:24;;;;;;;9.38;2.60;;;23.80;47.40;;;;;;6134363;28;80399;-73
2022/06/15 08:15:24;;;;;;;7.60;2.60;;;23.80;47.60;;;;;;6132417;28;80279;-73
2022/06/15 08:18:25;;;;;;;4.43;2.28;;;23.80;47.30;;;;;;6134109;28;80305;-73
2022/06/15 08:21:25;;;;;;;8.23;3.10;;;23.80;47.50;;;;;;6133778;28;80526;-73
2022/06/15 08:24:26;;;;;;;7.60;2.50;;;23.80;47.40;;;;;;6133955;28;80325;-73
2022/06/15 08:27:26;;;;;;;7.65;2.70;;;23.80;47.30;;;;;;6133734;28;81122;-72
2022/06/15 08:30:27;;;;;;;5.00;2.58;;;23.80;47.40;;;;;;6133689;28;82087;-73
2022/06/15 08:33:27;;;;;;;8.52;2.38;;;23.80;47.30;;;;;;6134045;28;80280;-72
2022/06/15 08:36:28;;;;;;;7.22;2.47;;;23.90;47.40;;;;;;6133871;28;80362;-72
2022/06/15 08:39:29;;;;;;;3.90;1.98;;;23.90;47.30;;;;;;6132013;28;80276;-73
2022/06/15 08:42:29;;;;;;;5.03;2.30;;;23.90;47.30;;;;;;6134015;28;80159;-73
2022/06/15 08:45:30;;;;;;;3.17;2.13;;;23.90;47.20;;;;;;6135232;28;80472;-73
2022/06/15 08:48:30;;;;;;;4.30;2.15;;;23.90;47.20;;;;;;6138448;28;80540;-74
2022/06/15 08:51:31;;;;;;;5.03;2.28;;;24.00;47.30;;;;;;6138097;28;80543;-74
2022/06/15 08:54:32;;;;;;;7.07;2.83;;;24.00;47.30;;;;;;6137181;28;80374;-73
2022/06/15 08:57:32;;;;;;;8.80;2.17;;;24.00;47.10;;;;;;6137728;28;80439;-73
2022/06/15 09:00:33;;;;;;;3.88;2.70;;;24.00;47.20;;;;;;6137776;28;80781;-72
2022/06/15 09:03:33;;;;;;;3.75;1.80;;;24.00;47.20;;;;;;6137736;28;80460;-72
2022/06/15 09:06:34;;;;;;;7.05;2.47;;;24.00;47.00;;;;;;6137372;28;80507;-72
2022/06/15 09:09:35;;;;;;;5.78;2.28;;;24.00;46.70;;;;;;6137289;28;80384;-71
2022/06/15 09:12:58;;;;;;;6.68;2.28;;;24.00;47.20;;;;;;6137281;28;80491;-71
2022/06/15 09:15:59;;;;;;;2.50;1.95;;;24.00;46.60;;;;;;6136859;28;80459;-73
2022/06/15 09:19:01;;;;;;;5.25;1.90;;;24.00;46.80;;;;;;6136995;28;80408;-72
2022/06/15 09:22:01;;;;;;;6.13;2.70;;;24.10;46.70;;;;;;6135427;28;83418;-72
2022/06/15 09:25:02;;;;;;;8.13;2.72;;;24.00;46.50;;;;;;6136123;28;80687;-72
2022/06/15 09:28:03;;;;;;;5.15;2.58;;;24.10;46.60;;;;;;6135736;28;80252;-72
2022/06/15 09:31:03;;;;;;;5.57;2.20;;;24.10;46.50;;;;;;6137177;28;80668;-73
2022/06/15 09:34:03;;;;;;;5.40;2.20;;;24.10;46.40;;;;;;6136893;28;80490;-74
2022/06/15 09:37:04;;;;;;;3.35;2.05;;;24.10;46.70;;;;;;6135468;28;80684;-72
2022/06/15 09:40:05;;;;;;;5.88;2.22;;;24.10;46.50;;;;;;6136881;28;83986;-72
2022/06/15 09:43:05;;;;;;;12.55;2.42;;;24.10;45.70;;;;;;6137117;28;80453;-72
2022/06/15 09:46:05;;;;;;;4.90;2.08;;;24.00;44.90;;;;;;6136820;28;80724;-72
2022/06/15 09:49:06;;;;;;;6.10;2.53;;;24.10;45.10;;;;;;6136982;28;80277;-73
2022/06/15 09:52:07;;;;;;;5.50;2.17;;;24.00;43.80;;;;;;6136409;28;80225;-73
2022/06/15 09:55:08;;;;;;;6.70;2.15;;;24.00;43.50;;;;;;6136648;28;80807;-72
2022/06/15 09:58:08;;;;;;;3.90;2.03;;;24.10;43.80;;;;;;6136391;28;80521;-72
2022/06/15 10:01:09;;;;;;;6.20;2.15;;;24.10;44.70;;;;;;6136001;28;82526;-73
2022/06/15 10:04:09;;;;;;;7.68;1.88;;;24.10;44.90;;;;;;6150831;28;81808;-72
2022/06/15 10:07:11;;;;;;;4.15;2.20;;;24.20;45.40;;;;;;6136344;28;81562;-72
2022/06/15 10:10:11;;;;;;;5.28;1.75;;;24.20;45.10;;;;;;6135616;28;82111;-72
2022/06/15 10:13:12;;;;;;;3.38;1.80;;;24.20;45.40;;;;;;6134775;28;82016;-72
2022/06/15 10:16:12;;;;;;;6.68;2.25;;;24.20;45.60;;;;;;6134896;28;82373;-73
2022/06/15 10:19:13;;;;;;;4.72;2.30;;;24.20;45.50;;;;;;6135725;28;80579;-72
2022/06/15 10:22:13;;;;;;;3.53;1.98;;;24.20;45.60;;;;;;6136271;28;81060;-72
2022/06/15 10:25:14;;;;;;;4.30;1.98;;;24.20;45.60;;;;;;6136252;28;80419;-72
2022/06/15 10:28:14;;;;;;;5.50;2.50;;;24.20;45.90;;;;;;6135790;28;81477;-73
2022/06/15 10:31:15;;;;;;;2.88;1.90;;;24.30;46.60;;;;;;6135767;28;80477;-72
2022/06/15 10:34:15;;;;;;;2.42;1.55;;;24.20;46.00;;;;;;6135637;28;80454;-72
2022/06/15 10:37:16;;;;;;;4.53;1.88;;;24.20;45.90;;;;;;6131445;28;80469;-72
2022/06/15 10:40:17;;;;;;;6.53;2.30;;;24.20;46.00;;;;;;6133478;28;82555;-72
2022/06/15 10:43:18;;;;;;;2.70;2.15;;;24.20;45.60;;;;;;6135988;28;80843;-71
2022/06/15 10:46:21;;;;;;;5.72;2.22;;;24.20;45.50;;;;;;6134888;28;80401;-72
2022/06/15 10:49:21;;;;;;;4.22;2.35;;;24.20;45.70;;;;;;6130643;28;81671;-72
2022/06/15 10:52:22;;;;;;;4.47;2.53;;;24.20;45.90;;;;;;6135467;28;80419;-71
2022/06/15 11:02:07;;;;;;;11.45;2.70;;;24.30;44.20;;;;;;6128958;28;80464;-71
2022/06/15 11:05:07;;;;;;;5.97;2.38;;;24.30;44.60;;;;;;6135126;28;80926;-72
2022/06/15 11:08:08;;;;;;;4.75;3.00;;;24.30;44.00;;;;;;6132776;28;80218;-71
2022/06/15 11:11:08;;;;;;;5.15;2.58;;;24.30;43.90;;;;;;6137993;28;81208;-71
2022/06/15 11:14:09;;;;;;;5.65;3.00;;;24.30;43.90;;;;;;6135013;28;80347;-71
2022/06/15 11:20:28;;;;;;;7.38;2.67;;;24.30;43.10;;;;;;6132012;28;80654;-73
2022/06/15 11:23:29;;;;;;;6.50;2.63;;;24.40;43.00;;;;;;6136575;28;80474;-71
2022/06/15 11:29:48;;;;;;;5.78;2.40;;;24.40;43.20;;;;;;6134600;28;81127;-71
2022/06/15 11:32:51;;;;;;;8.15;2.85;;;24.40;43.30;;;;;;6134745;28;80270;-73
2022/06/15 11:35:51;;;;;;;9.10;3.47;;;24.40;43.10;;;;;;6134117;28;80652;-71
2022/06/15 11:38:52;;;;;;;7.18;2.80;;;24.40;43.60;;;;;;6131230;28;82132;-71
2022/06/15 11:41:52;;;;;;;10.52;3.80;;;24.40;43.60;;;;;;6133261;28;81584;-72
2022/06/15 11:44:53;;;;;;;10.98;3.58;;;24.40;43.70;;;;;;6134595;28;80480;-71
2022/06/15 11:47:53;;;;;;;6.68;3.45;;;24.40;43.20;;;;;;6134761;28;81038;-71
2022/06/15 11:50:54;;;;;;;7.80;3.13;;;24.40;43.70;;;;;;6132365;28;80011;-71
2022/06/15 11:53:55;;;;;;;4.97;2.63;;;24.50;44.00;;;;;;6133423;28;80765;-72
2022/06/15 11:56:55;;;;;;;7.93;3.00;;;24.50;44.70;;;;;;6137874;28;80638;-71
2022/06/15 11:59:56;;;;;;;5.28;3.13;;;24.40;44.30;;;;;;6130286;28;82441;-71
2022/06/15 12:02:56;;;;;;;6.90;2.53;;;24.50;44.10;;;;;;6134328;28;80403;-72
2022/06/15 12:05:57;;;;;;;7.28;2.92;;;24.50;44.10;;;;;;6124267;28;87136;-72
2022/06/15 12:08:57;;;;;;;4.38;2.17;;;24.40;44.20;;;;;;6146466;28;80574;-70
2022/06/15 12:15:17;;;;;;;6.00;2.65;;;24.40;44.90;;;;;;6137587;28;80567;-69
2022/06/15 12:18:18;;;;;;;4.85;2.40;;;24.40;43.60;;;;;;6137148;28;81415;-70
2022/06/15 12:21:18;;;;;;;7.93;2.75;;;24.30;43.70;;;;;;6128031;28;82033;-67
2022/06/15 12:24:19;;;;;;;9.38;2.65;;;24.20;43.90;;;;;;6138497;28;80661;-67
2022/06/15 12:27:19;;;;;;;7.80;2.60;;;24.30;44.30;;;;;;6142311;28;81496;-69
2022/06/15 12:30:19;;;;;;;7.38;2.85;;;24.30;44.70;;;;;;6136677;28;80735;-69
2022/06/15 12:33:20;;;;;;;4.60;2.22;;;24.30;44.50;;;;;;6138457;28;80394;-72
2022/06/15 12:36:20;;;;;;;4.20;2.85;;;24.30;44.10;;;;;;6137216;28;81768;-69
2022/06/15 12:39:21;;;;;;;4.80;2.40;;;24.30;43.80;;;;;;6138104;28;80350;-69
2022/06/15 12:42:22;;;;;;;5.88;2.85;;;24.40;45.00;;;;;;6146464;28;80222;-68
2022/06/15 12:45:22;;;;;;;6.22;2.50;;;24.40;44.60;;;;;;6138486;28;80518;-68
2022/06/15 12:48:23;;;;;;;4.85;2.72;;;24.40;44.10;;;;;;6137812;28;80452;-69
2022/06/15 12:51:23;;;;;;;4.40;2.38;;;24.40;44.50;;;;;;6133248;28;80215;-69
2022/06/15 12:54:24;;;;;;;5.13;2.70;;;24.50;44.80;;;;;;6139958;28;81531;-69
2022/06/15 12:57:24;;;;;;;5.75;2.40;;;24.40;45.20;;;;;;6130550;28;81031;-69
2022/06/15 13:00:25;;;;;;;6.07;2.40;;;24.40;44.80;;;;;;6145948;28;80824;-69
2022/06/15 13:03:25;;;;;;;3.95;2.15;;;24.40;44.10;;;;;;6137821;28;80697;-69
2022/06/15 13:06:26;;;;;;;3.85;2.00;;;24.40;44.40;;;;;;6137510;28;80689;-70
2022/06/15 13:09:26;;;;;;;6.38;2.35;;;24.40;44.70;;;;;;6137797;28;80160;-72
2022/06/15 13:12:27;;;;;;;9.02;3.13;;;24.50;44.40;;;;;;6134105;28;87583;-70
2022/06/15 13:15:27;;;;;;;5.72;2.35;;;24.50;44.30;;;;;;6140876;28;81572;-70
2022/06/15 13:18:28;;;;;;;4.13;2.17;;;24.50;43.40;;;;;;6137789;28;80565;-71
2022/06/15 13:21:28;;;;;;;4.32;2.33;;;24.50;43.60;;;;;;6137356;28;80516;-70
2022/06/15 13:24:29;;;;;;;6.88;2.63;;;24.50;42.80;;;;;;6137354;28;80276;-70
2022/06/15 13:27:29;;;;;;;6.45;2.38;;;24.50;43.30;;;;;;6134652;28;81062;-70
2022/06/15 13:30:30;;;;;;;4.43;2.33;;;24.50;42.00;;;;;;6135367;28;80640;-70
2022/06/15 13:33:30;;;;;;;5.85;2.35;;;24.40;42.30;;;;;;6135839;28;81776;-69
2022/06/15 13:36:31;;;;;;;4.40;1.98;;;24.40;41.70;;;;;;6136449;28;82579;-69
2022/06/15 13:39:31;;;;;;;12.63;2.00;;;24.40;41.70;;;;;;6136878;28;80354;-69
2022/06/15 13:42:37;;;;;;;4.93;2.22;;;24.40;41.00;;;;;;6135167;28;81075;-69
2022/06/15 13:45:37;;;;;;;3.92;2.40;;;24.40;41.70;;;;;;6137818;28;80543;-69
2022/06/15 13:48:38;;;;;;;4.65;2.25;;;24.40;41.90;;;;;;6134752;28;80535;-70
2022/06/15 13:51:38;;;;;;;2.55;1.70;;;24.40;41.80;;;;;;6130796;28;80508;-70
2022/06/15 13:54:39;;;;;;;5.45;1.85;;;24.40;42.00;;;;;;6135605;28;80402;-70
2022/06/15 13:57:39;;;;;;;5.00;2.38;;;24.40;42.20;;;;;;6137096;28;80052;-70
2022/06/15 14:00:40;;;;;;;4.07;2.05;;;24.30;42.10;;;;;;6139166;28;81323;-68
2022/06/15 14:03:40;;;;;;;3.60;1.95;;;24.30;42.70;;;;;;6142191;28;80281;-70
2022/06/15 14:06:41;;;;;;;5.15;2.20;;;24.40;43.50;;;;;;6140716;28;80416;-71
2022/06/15 14:09:41;;;;;;;106.25;47.80;;;24.40;42.50;;;;;;6144618;28;80406;-69
2022/06/15 14:12:42;;;;;;;61.85;25.83;;;24.30;42.90;;;;;;6137899;28;82887;-69
2022/06/15 14:15:42;;;;;;;106.93;42.60;;;24.40;42.60;;;;;;6133469;28;84053;-69
2022/06/15 14:18:43;;;;;;;169.32;71.03;;;24.40;43.00;;;;;;6130577;28;83320;-70
2022/06/15 14:21:43;;;;;;;208.10;86.70;;;24.50;43.20;;;;;;6132810;28;83872;-69
2022/06/15 14:24:43;;;;;;;141.95;60.95;;;24.50;43.30;;;;;;6132784;28;83027;-69
2022/06/15 14:27:44;;;;;;;108.38;42.83;;;24.50;43.10;;;;;;6128288;28;82876;-69
2022/06/15 14:30:44;;;;;;;88.93;36.42;;;24.50;42.90;;;;;;6130466;28;83298;-70
2022/06/15 14:33:45;;;;;;;69.63;29.58;;;24.50;43.00;;;;;;6128443;28;83896;-69
2022/06/15 14:36:45;;;;;;;32.97;15.80;;;24.50;42.80;;;;;;6132014;28;83877;-70
2022/06/15 14:39:46;;;;;;;17.52;7.95;;;24.50;42.70;;;;;;6132106;28;82937;-70
2022/06/15 14:42:56;;;;;;;13.32;6.10;;;24.50;42.20;;;;;;6135262;28;82018;-69
2022/06/15 14:45:57;;;;;;;15.63;5.40;;;24.60;42.40;;;;;;6140891;28;82411;-69
2022/06/15 14:48:58;;;;;;;11.70;5.25;;;24.50;42.30;;;;;;6135746;28;80432;-70
2022/06/15 14:51:58;;;;;;;13.55;4.68;;;24.60;42.50;;;;;;6135472;28;80844;-72
2022/06/15 14:55:03;;;;;;;6.93;3.45;;;24.60;42.70;;;;;;6144517;28;80966;-69
2022/06/15 14:58:04;;;;;;;10.10;4.05;;;24.60;42.50;;;;;;6135415;28;80550;-69
2022/06/15 15:01:04;;;;;;;7.78;3.65;;;24.60;42.70;;;;;;6136283;28;80849;-69
2022/06/15 15:04:05;;;;;;;8.25;3.50;;;24.60;42.20;;;;;;6152539;28;81536;-69
2022/06/15 15:10:25;;;;;;;6.85;2.95;;;24.60;42.70;;;;;;6135478;28;81432;-69
2022/06/15 15:13:27;;;;;;;8.20;3.22;;;24.60;42.50;;;;;;6134410;28;80518;-68
2022/06/15 15:16:27;;;;;;;5.55;2.70;;;24.60;42.70;;;;;;6126795;28;80351;-69
2022/06/15 15:19:28;;;;;;;6.00;2.20;;;24.60;43.00;;;;;;6134363;28;81531;-68
2022/06/15 15:22:29;;;;;;;5.10;2.45;;;24.60;43.10;;;;;;6134159;28;80974;-70
2022/06/15 15:25:29;;;;;;;7.00;2.72;;;24.70;43.40;;;;;;6136884;28;81082;-73
2022/06/15 15:35:24;;;;;;;3.60;2.47;;;24.70;44.70;;;;;;6127692;28;84916;-69
2022/06/15 15:38:25;;;;;;;4.90;2.20;;;24.60;44.10;;;;;;6128587;28;81530;-72
2022/06/15 15:41:25;;;;;;;8.85;2.70;;;24.60;44.20;;;;;;6130438;28;80670;-70
2022/06/15 15:44:26;;;;;;;7.10;2.42;;;24.60;43.50;;;;;;6134378;28;80278;-69
2022/06/15 15:47:26;;;;;;;5.53;2.20;;;24.50;43.00;;;;;;6131255;28;82447;-69
2022/06/15 15:50:27;;;;;;;4.68;2.30;;;24.50;43.20;;;;;;6132846;28;80787;-71
2022/06/15 15:53:27;;;;;;;7.13;2.50;;;24.50;43.20;;;;;;6128117;28;80387;-68
2022/06/15 15:56:28;;;;;;;7.22;2.58;;;24.50;42.70;;;;;;6128859;28;80613;-70
2022/06/15 15:59:28;;;;;;;3.47;2.15;;;24.50;42.80;;;;;;6134327;28;80876;-70
2022/06/15 16:02:29;;;;;;;8.90;1.90;;;24.50;42.40;;;;;;6140772;28;82049;-72
2022/06/15 16:05:29;;;;;;;4.53;2.25;;;24.50;42.30;;;;;;6138686;28;81473;-74
2022/06/15 16:08:30;;;;;;;3.60;2.42;;;24.50;42.50;;;;;;6132873;28;81645;-71
2022/06/15 16:11:30;;;;;;;4.45;2.35;;;24.50;42.70;;;;;;6134062;28;80319;-73